<?xml version="1.0" encoding="UTF-8"?><gpx version="1.0"><name>FlightAirMap GPX Feed</name><trk><name>HER220 American Airlines Heritage | N172AJ B757-200 (B752) | SBRF - KMIA</name><number>1</number><trkseg><trkpt lat="-8.12754" lon="-34.9203"><ele>23</ele><time>2026-05-04T12:29:47+00:00</time></trkpt><trkpt lat="-8.12754" lon="-34.9203"><ele>23</ele><time>2026-05-04T12:34:52+00:00</time></trkpt><trkpt lat="-8.12754" lon="-34.9203"><ele>23</ele><time>2026-05-04T12:39:56+00:00</time></trkpt><trkpt lat="-8.1165" lon="-34.925"><ele>21</ele><time>2026-05-04T12:44:59+00:00</time></trkpt><trkpt lat="-8.14481" lon="-34.779"><ele>7047</ele><time>2026-05-04T12:49:54+00:00</time></trkpt><trkpt lat="-7.72531" lon="-34.8777"><ele>16351</ele><time>2026-05-04T12:54:59+00:00</time></trkpt><trkpt lat="-7.45317" lon="-35.4511"><ele>23640</ele><time>2026-05-04T13:00:04+00:00</time></trkpt><trkpt lat="-7.11454" lon="-35.9593"><ele>29102</ele><time>2026-05-04T13:04:38+00:00</time></trkpt><trkpt lat="-6.74016" lon="-36.4973"><ele>33978</ele><time>2026-05-04T13:09:41+00:00</time></trkpt><trkpt lat="-6.34488" lon="-37.0201"><ele>33982</ele><time>2026-05-04T13:14:51+00:00</time></trkpt><trkpt lat="-5.93641" lon="-37.5182"><ele>33983</ele><time>2026-05-04T13:19:55+00:00</time></trkpt><trkpt lat="-5.522" lon="-38.017"><ele>33978</ele><time>2026-05-04T13:25:00+00:00</time></trkpt><trkpt lat="-5.14431" lon="-38.4653"><ele>33979</ele><time>2026-05-04T13:29:34+00:00</time></trkpt><trkpt lat="-4.7248" lon="-38.9652"><ele>33981</ele><time>2026-05-04T13:34:37+00:00</time></trkpt><trkpt lat="-4.29475" lon="-39.464"><ele>33981</ele><time>2026-05-04T13:39:42+00:00</time></trkpt><trkpt lat="-3.85304" lon="-39.966"><ele>33981</ele><time>2026-05-04T13:44:47+00:00</time></trkpt><trkpt lat="-3.41059" lon="-40.4664"><ele>33986</ele><time>2026-05-04T13:49:52+00:00</time></trkpt><trkpt lat="-2.96719" lon="-40.9642"><ele>33984</ele><time>2026-05-04T13:54:56+00:00</time></trkpt><trkpt lat="-2.52321" lon="-41.4617"><ele>33985</ele><time>2026-05-04T14:00:00+00:00</time></trkpt><trkpt lat="-2.12127" lon="-41.9125"><ele>33989</ele><time>2026-05-04T14:04:35+00:00</time></trkpt><trkpt lat="-1.68733" lon="-42.404"><ele>33986</ele><time>2026-05-04T14:09:40+00:00</time></trkpt><trkpt lat="-1.24179" lon="-42.9075"><ele>33987</ele><time>2026-05-04T14:14:45+00:00</time></trkpt><trkpt lat="-0.79534" lon="-43.4097"><ele>33984</ele><time>2026-05-04T14:19:52+00:00</time></trkpt><trkpt lat="-0.34808" lon="-43.9126"><ele>33988</ele><time>2026-05-04T14:24:56+00:00</time></trkpt><trkpt lat="0.1019" lon="-44.4186"><ele>33989</ele><time>2026-05-04T14:30:01+00:00</time></trkpt><trkpt lat="0.50857" lon="-44.8758"><ele>33988</ele><time>2026-05-04T14:34:37+00:00</time></trkpt><trkpt lat="0.96005" lon="-45.3836"><ele>33988</ele><time>2026-05-04T14:39:42+00:00</time></trkpt><trkpt lat="1.41396" lon="-45.8942"><ele>33989</ele><time>2026-05-04T14:44:49+00:00</time></trkpt><trkpt lat="1.86812" lon="-46.4055"><ele>33986</ele><time>2026-05-04T14:49:55+00:00</time></trkpt><trkpt lat="2.32191" lon="-46.9159"><ele>33986</ele><time>2026-05-04T14:55:02+00:00</time></trkpt><trkpt lat="2.72556" lon="-47.3697"><ele>33987</ele><time>2026-05-04T14:59:36+00:00</time></trkpt><trkpt lat="3.17147" lon="-47.8717"><ele>33987</ele><time>2026-05-04T15:04:41+00:00</time></trkpt><trkpt lat="3.61908" lon="-48.3763"><ele>33986</ele><time>2026-05-04T15:09:47+00:00</time></trkpt><trkpt lat="4.07036" lon="-48.8859"><ele>33986</ele><time>2026-05-04T15:14:52+00:00</time></trkpt><trkpt lat="4.52188" lon="-49.3966"><ele>33984</ele><time>2026-05-04T15:19:56+00:00</time></trkpt><trkpt lat="4.98126" lon="-49.894"><ele>33988</ele><time>2026-05-04T15:25:03+00:00</time></trkpt><trkpt lat="5.39798" lon="-50.3297"><ele>33987</ele><time>2026-05-04T15:29:38+00:00</time></trkpt><trkpt lat="5.85738" lon="-50.8111"><ele>33992</ele><time>2026-05-04T15:34:43+00:00</time></trkpt><trkpt lat="6.31368" lon="-51.2904"><ele>33984</ele><time>2026-05-04T15:39:48+00:00</time></trkpt><trkpt lat="6.76189" lon="-51.7714"><ele>33990</ele><time>2026-05-04T15:44:52+00:00</time></trkpt><trkpt lat="7.18253" lon="-52.2749"><ele>33985</ele><time>2026-05-04T15:49:58+00:00</time></trkpt><trkpt lat="7.59392" lon="-52.7689"><ele>33989</ele><time>2026-05-04T15:55:02+00:00</time></trkpt><trkpt lat="7.96278" lon="-53.2131"><ele>33986</ele><time>2026-05-04T15:59:37+00:00</time></trkpt><trkpt lat="8.36699" lon="-53.7015"><ele>33989</ele><time>2026-05-04T16:04:40+00:00</time></trkpt><trkpt lat="8.77192" lon="-54.1885"><ele>33986</ele><time>2026-05-04T16:09:45+00:00</time></trkpt><trkpt lat="9.17673" lon="-54.6714"><ele>33992</ele><time>2026-05-04T16:14:51+00:00</time></trkpt><trkpt lat="9.57627" lon="-55.1552"><ele>33985</ele><time>2026-05-04T16:19:57+00:00</time></trkpt><trkpt lat="9.97155" lon="-55.6363"><ele>33980</ele><time>2026-05-04T16:25:01+00:00</time></trkpt><trkpt lat="10.327" lon="-56.0708"><ele>33988</ele><time>2026-05-04T16:29:35+00:00</time></trkpt><trkpt lat="10.7241" lon="-56.558"><ele>33981</ele><time>2026-05-04T16:34:41+00:00</time></trkpt><trkpt lat="11.121" lon="-57.0479"><ele>33991</ele><time>2026-05-04T16:39:46+00:00</time></trkpt><trkpt lat="11.5195" lon="-57.5419"><ele>33982</ele><time>2026-05-04T16:44:54+00:00</time></trkpt><trkpt lat="11.9181" lon="-58.0386"><ele>33985</ele><time>2026-05-04T16:50:00+00:00</time></trkpt><trkpt lat="12.2823" lon="-58.4789"><ele>33986</ele><time>2026-05-04T16:54:34+00:00</time></trkpt><trkpt lat="12.6802" lon="-58.979"><ele>33991</ele><time>2026-05-04T16:59:39+00:00</time></trkpt><trkpt lat="13.0808" lon="-59.4833"><ele>33987</ele><time>2026-05-04T17:04:45+00:00</time></trkpt><trkpt lat="13.533" lon="-59.9397"><ele>33986</ele><time>2026-05-04T17:09:50+00:00</time></trkpt><trkpt lat="13.9838" lon="-60.397"><ele>33984</ele><time>2026-05-04T17:14:55+00:00</time></trkpt><trkpt lat="14.4325" lon="-60.8588"><ele>33988</ele><time>2026-05-04T17:20:00+00:00</time></trkpt><trkpt lat="14.824" lon="-61.2871"><ele>33984</ele><time>2026-05-04T17:24:34+00:00</time></trkpt><trkpt lat="15.2484" lon="-61.7744"><ele>33989</ele><time>2026-05-04T17:29:40+00:00</time></trkpt><trkpt lat="15.6751" lon="-62.2677"><ele>33984</ele><time>2026-05-04T17:34:48+00:00</time></trkpt><trkpt lat="16.1009" lon="-62.7635"><ele>33984</ele><time>2026-05-04T17:39:54+00:00</time></trkpt><trkpt lat="16.5159" lon="-63.2757"><ele>33988</ele><time>2026-05-04T17:45:01+00:00</time></trkpt><trkpt lat="16.8791" lon="-63.7471"><ele>33987</ele><time>2026-05-04T17:49:36+00:00</time></trkpt><trkpt lat="17.2839" lon="-64.2745"><ele>33990</ele><time>2026-05-04T17:54:43+00:00</time></trkpt><trkpt lat="17.6833" lon="-64.8047"><ele>33987</ele><time>2026-05-04T17:59:49+00:00</time></trkpt><trkpt lat="18.0814" lon="-65.335"><ele>33982</ele><time>2026-05-04T18:04:54+00:00</time></trkpt><trkpt lat="18.4811" lon="-65.8708"><ele>33987</ele><time>2026-05-04T18:10:01+00:00</time></trkpt><trkpt lat="18.8385" lon="-66.3554"><ele>33988</ele><time>2026-05-04T18:14:36+00:00</time></trkpt><trkpt lat="19.2098" lon="-66.9125"><ele>33988</ele><time>2026-05-04T18:19:41+00:00</time></trkpt><trkpt lat="19.5729" lon="-67.4771"><ele>33986</ele><time>2026-05-04T18:24:45+00:00</time></trkpt><trkpt lat="19.9344" lon="-68.0445"><ele>33986</ele><time>2026-05-04T18:29:51+00:00</time></trkpt><trkpt lat="20.2875" lon="-68.6131"><ele>33984</ele><time>2026-05-04T18:34:54+00:00</time></trkpt><trkpt lat="20.6072" lon="-69.2004"><ele>33989</ele><time>2026-05-04T18:39:59+00:00</time></trkpt><trkpt lat="20.9227" lon="-69.7866"><ele>33991</ele><time>2026-05-04T18:45:03+00:00</time></trkpt><trkpt lat="21.2045" lon="-70.3167"><ele>33983</ele><time>2026-05-04T18:49:36+00:00</time></trkpt><trkpt lat="21.5138" lon="-70.9047"><ele>33988</ele><time>2026-05-04T18:54:40+00:00</time></trkpt><trkpt lat="21.8065" lon="-71.4999"><ele>33981</ele><time>2026-05-04T18:59:44+00:00</time></trkpt><trkpt lat="22.0938" lon="-72.0984"><ele>33986</ele><time>2026-05-04T19:04:50+00:00</time></trkpt><trkpt lat="22.3789" lon="-72.6969"><ele>33990</ele><time>2026-05-04T19:09:56+00:00</time></trkpt><trkpt lat="22.6594" lon="-73.2943"><ele>33986</ele><time>2026-05-04T19:15:02+00:00</time></trkpt><trkpt lat="22.9082" lon="-73.8307"><ele>33990</ele><time>2026-05-04T19:19:38+00:00</time></trkpt><trkpt lat="23.1806" lon="-74.4248"><ele>33980</ele><time>2026-05-04T19:24:44+00:00</time></trkpt><trkpt lat="23.4479" lon="-75.0117"><ele>33987</ele><time>2026-05-04T19:29:49+00:00</time></trkpt><trkpt lat="23.7109" lon="-75.5918"><ele>33978</ele><time>2026-05-04T19:34:54+00:00</time></trkpt><trkpt lat="23.972" lon="-76.1687"><ele>33988</ele><time>2026-05-04T19:39:58+00:00</time></trkpt><trkpt lat="24.2328" lon="-76.7463"><ele>33991</ele><time>2026-05-04T19:45:02+00:00</time></trkpt><trkpt lat="24.4685" lon="-77.2693"><ele>33987</ele><time>2026-05-04T19:49:36+00:00</time></trkpt><trkpt lat="24.7027" lon="-77.8573"><ele>33989</ele><time>2026-05-04T19:54:41+00:00</time></trkpt><trkpt lat="24.872" lon="-78.4565"><ele>33382</ele><time>2026-05-04T19:59:41+00:00</time></trkpt><trkpt lat="25.0131" lon="-79.0645"><ele>22632</ele><time>2026-05-04T20:04:46+00:00</time></trkpt><trkpt lat="25.2774" lon="-79.5359"><ele>14458</ele><time>2026-05-04T20:09:51+00:00</time></trkpt><trkpt lat="25.5624" lon="-79.8592"><ele>8202</ele><time>2026-05-04T20:14:56+00:00</time></trkpt><trkpt lat="25.7367" lon="-80.1807"><ele>2009</ele><time>2026-05-04T20:20:04+00:00</time></trkpt><trkpt lat="25.799" lon="-80.2948"><ele>4</ele><time>2026-05-04T20:25:03+00:00</time></trkpt></trkseg></trk></gpx>